createdAt,value
2022-08-19T00:02:18.154Z,67.58
2022-08-19T00:04:47.880Z,68.22
2022-08-19T00:07:15.507Z,70.40
2022-08-19T00:09:43.025Z,67.54
2022-08-19T00:12:11.247Z,66.07
2022-08-19T00:14:40.380Z,68.02
2022-08-19T00:17:07.996Z,67.18
2022-08-19T00:19:35.770Z,66.96
2022-08-19T00:22:03.377Z,66.71
2022-08-19T00:24:31.221Z,68.21
2022-08-19T00:27:24.960Z,67.77
2022-08-19T00:29:52.400Z,67.93
2022-08-19T00:32:20.712Z,66.70
2022-08-19T00:34:48.203Z,67.29
2022-08-19T00:37:15.763Z,69.40
2022-08-19T00:39:43.277Z,69.63
2022-08-19T00:42:10.808Z,69.94
2022-08-19T00:44:38.489Z,69.71
2022-08-19T00:47:07.522Z,69.61
2022-08-19T00:49:44.639Z,68.37
2022-08-19T00:52:16.586Z,68.13
2022-08-19T00:54:47.769Z,68.68
2022-08-19T00:57:19.449Z,69.18
2022-08-19T00:59:59.443Z,69.94
2022-08-19T01:02:33.358Z,67.51
2022-08-19T01:05:02.315Z,65.50
2022-08-19T01:07:37.623Z,64.76
2022-08-19T01:10:08.209Z,65.01
2022-08-19T01:12:36.005Z,65.05
2022-08-19T01:15:04.233Z,64.31
2022-08-19T01:17:33.299Z,64.99
2022-08-19T01:20:00.850Z,64.71
2022-08-19T01:22:33.726Z,64.81
2022-08-19T01:25:01.843Z,64.42
2022-08-19T01:27:32.991Z,64.31
2022-08-19T01:30:12.657Z,63.61
2022-08-19T01:32:40.141Z,63.65
2022-08-19T01:35:08.111Z,63.71
2022-08-19T01:37:49.245Z,63.89
2022-08-19T01:40:17.729Z,64.19
2022-08-19T01:42:45.207Z,63.71
2022-08-19T01:45:12.680Z,63.76
2022-08-19T01:47:40.166Z,63.68
2022-08-19T01:50:09.967Z,65.28
2022-08-19T01:52:37.949Z,63.85
2022-08-19T01:55:09.609Z,63.68
2022-08-19T01:57:37.485Z,64.59
2022-08-19T02:00:07.400Z,64.58
2022-08-19T02:02:34.950Z,64.19
2022-08-19T02:05:02.474Z,64.21
2022-08-19T02:07:30.174Z,65.51
2022-08-19T02:09:58.343Z,64.93
2022-08-19T02:12:27.169Z,64.34
2022-08-19T02:14:54.661Z,64.19
2022-08-19T02:17:22.248Z,63.92
2022-08-19T02:19:49.859Z,64.11
2022-08-19T02:22:17.349Z,63.60
2022-08-19T02:24:44.851Z,64.86
2022-08-19T02:27:12.344Z,66.55
2022-08-19T02:29:41.860Z,66.24
2022-08-19T02:32:09.462Z,65.87
2022-08-19T02:34:36.983Z,66.98
2022-08-19T02:37:04.504Z,66.70
2022-08-19T02:39:31.372Z,65.53
2022-08-19T02:42:00.472Z,67.23
2022-08-19T02:44:31.853Z,65.74
2022-08-19T02:47:00.973Z,66.64
2022-08-19T02:49:28.594Z,65.91
2022-08-19T02:51:56.107Z,65.93
2022-08-19T02:54:23.615Z,65.73
2022-08-19T02:56:51.124Z,65.52
2022-08-19T02:59:18.596Z,67.09
2022-08-19T03:01:50.346Z,67.30
2022-08-19T03:04:21.125Z,68.55
2022-08-19T03:06:48.969Z,67.90
2022-08-19T03:09:17.370Z,68.48
2022-08-19T03:11:44.928Z,67.87
2022-08-19T03:14:13.690Z,69.04
2022-08-19T03:16:44.444Z,67.84
2022-08-19T03:19:11.920Z,67.84
2022-08-19T03:21:40.747Z,68.75
2022-08-19T03:24:10.089Z,69.15
2022-08-19T03:26:42.128Z,69.12
2022-08-19T03:29:11.629Z,69.88
2022-08-19T03:31:45.408Z,69.88
2022-08-19T03:34:23.292Z,69.52
2022-08-19T03:36:52.128Z,68.45
2022-08-19T03:39:19.995Z,67.99
2022-08-19T03:41:49.897Z,67.56
2022-08-19T03:44:38.496Z,69.20
2022-08-19T03:47:06.931Z,70.24
2022-08-19T03:49:36.019Z,71.21
2022-08-19T03:52:08.269Z,71.29
2022-08-19T03:54:36.473Z,73.05
2022-08-19T03:57:04.850Z,73.15
2022-08-19T03:59:34.222Z,72.32
2022-08-19T04:02:05.314Z,73.04
2022-08-19T04:04:32.916Z,73.56
2022-08-19T04:07:00.383Z,74.25
2022-08-19T04:09:29.237Z,74.68
2022-08-19T04:11:58.585Z,74.96
2022-08-19T04:14:29.318Z,74.97
2022-08-19T04:16:57.416Z,74.92
2022-08-19T04:19:24.927Z,75.67
2022-08-19T04:21:54.314Z,75.53
2022-08-19T04:24:22.544Z,76.39
2022-08-19T04:26:51.774Z,76.19
2022-08-19T04:29:22.877Z,76.42
2022-08-19T04:31:50.814Z,75.93
2022-08-19T04:34:22.983Z,75.81
2022-08-19T04:36:51.836Z,75.79
2022-08-19T04:39:21.325Z,75.94
2022-08-19T04:42:06.448Z,75.61
2022-08-19T04:44:36.687Z,76.57
2022-08-19T04:47:13.442Z,77.02
2022-08-19T04:49:41.021Z,78.03
2022-08-19T04:52:09.344Z,76.83
2022-08-19T04:54:38.891Z,77.44
2022-08-19T04:57:08.452Z,76.43
2022-08-19T04:59:37.767Z,75.30
2022-08-19T05:02:06.379Z,74.61
2022-08-19T05:04:34.447Z,76.07
2022-08-19T05:07:02.545Z,76.32
2022-08-19T05:09:55.324Z,76.10
2022-08-19T05:12:18.513Z,75.66
2022-08-19T05:14:48.275Z,74.61
2022-08-19T05:17:36.288Z,74.06
2022-08-19T05:20:22.044Z,73.07
2022-08-19T05:22:49.839Z,72.16
2022-08-19T05:25:20.964Z,71.96
2022-08-19T05:27:49.194Z,71.58
2022-08-19T05:30:20.381Z,70.64
2022-08-19T05:33:01.281Z,71.22
2022-08-19T05:35:29.329Z,69.36
2022-08-19T05:38:02.387Z,70.11
2022-08-19T05:40:30.034Z,68.97
2022-08-19T05:42:57.554Z,69.20
2022-08-19T05:45:26.387Z,68.28
2022-08-19T05:47:53.857Z,67.96
2022-08-19T05:50:21.671Z,67.29
2022-08-19T05:52:50.047Z,66.96
2022-08-19T05:55:17.768Z,66.83
2022-08-19T05:57:45.263Z,66.13
2022-08-19T06:00:14.494Z,66.55
2022-08-19T06:02:43.393Z,65.60
2022-08-19T06:05:12.184Z,65.20
2022-08-19T06:07:41.130Z,65.65
2022-08-19T06:10:11.592Z,64.97
2022-08-19T06:12:39.598Z,65.14
2022-08-19T06:15:09.923Z,65.49
2022-08-19T06:17:37.656Z,65.88
2022-08-19T06:20:09.646Z,64.61
2022-08-19T06:22:39.947Z,64.98
2022-08-19T06:25:10.036Z,64.91
2022-08-19T06:27:42.026Z,65.01
2022-08-19T06:30:13.509Z,65.08
2022-08-19T06:32:42.870Z,65.04
2022-08-19T06:35:13.165Z,62.41
2022-08-19T06:37:43.677Z,62.16
2022-08-19T06:40:13.452Z,61.92
2022-08-19T06:42:43.291Z,62.19
2022-08-19T06:45:24.935Z,61.35
2022-08-19T06:47:56.678Z,59.70
2022-08-19T06:50:25.878Z,59.78
2022-08-19T06:52:53.723Z,59.57
2022-08-19T06:55:21.498Z,59.98
2022-08-19T06:57:49.287Z,59.82
2022-08-19T07:00:17.222Z,59.28
2022-08-19T07:02:49.684Z,59.55
2022-08-19T07:05:20.828Z,60.74
2022-08-19T07:07:49.640Z,60.79
2022-08-19T07:10:18.568Z,60.53
2022-08-19T07:12:46.122Z,59.96
2022-08-19T07:15:14.372Z,59.81
2022-08-19T07:17:42.235Z,60.07
2022-08-19T07:20:11.893Z,60.23
2022-08-19T07:22:40.078Z,59.63
2022-08-19T07:25:10.316Z,59.23
2022-08-19T07:27:39.611Z,58.85
2022-08-19T07:30:23.270Z,57.77
2022-08-19T07:32:53.911Z,58.46
2022-08-19T07:35:21.451Z,57.20
2022-08-19T07:37:49.347Z,55.60
2022-08-19T07:40:18.250Z,54.96
2022-08-19T07:42:45.737Z,55.42
2022-08-19T07:45:13.573Z,54.81
2022-08-19T07:47:50.190Z,54.59
2022-08-19T07:50:20.932Z,54.08
2022-08-19T07:52:50.410Z,54.56
2022-08-19T07:55:42.584Z,53.55
2022-08-19T07:58:09.791Z,54.32
2022-08-19T08:00:37.435Z,54.07
2022-08-19T08:03:05.201Z,53.36
2022-08-19T08:05:50.577Z,53.87
2022-08-19T08:08:35.932Z,53.14
2022-08-19T08:11:07.584Z,52.89
2022-08-19T08:13:36.104Z,53.44
2022-08-19T08:16:04.489Z,53.20
2022-08-19T08:18:32.159Z,53.23
2022-08-19T08:21:00.491Z,53.01
2022-08-19T08:23:28.012Z,53.27
2022-08-19T08:25:57.878Z,53.13
2022-08-19T08:28:29.360Z,52.17
2022-08-19T08:30:58.162Z,52.66
2022-08-19T08:33:33.036Z,52.54
2022-08-19T08:36:03.998Z,51.56
2022-08-19T08:38:38.454Z,51.67
2022-08-19T08:41:12.056Z,51.52
2022-08-19T08:43:44.388Z,51.35
2022-08-19T08:46:16.241Z,51.30
2022-08-19T08:49:04.600Z,49.50
2022-08-19T08:51:36.244Z,49.46
2022-08-19T08:54:07.602Z,49.76
2022-08-19T08:56:37.381Z,49.64
2022-08-19T08:59:09.359Z,48.89
2022-08-19T09:01:40.498Z,48.15
2022-08-19T09:04:09.256Z,48.31
2022-08-19T09:06:44.056Z,49.13
2022-08-19T09:09:16.725Z,47.84
2022-08-19T09:11:59.329Z,49.67
2022-08-19T09:14:54.376Z,51.76
2022-08-19T09:17:31.886Z,51.49
2022-08-19T09:20:05.665Z,51.19
2022-08-19T09:22:33.288Z,51.51
2022-08-19T09:25:00.841Z,52.06
2022-08-19T09:27:42.569Z,52.61
2022-08-19T09:30:16.202Z,51.99
2022-08-19T09:32:44.232Z,51.78
2022-08-19T09:35:12.155Z,51.27
2022-08-19T09:37:40.479Z,51.00
2022-08-19T09:40:09.594Z,52.00
2022-08-19T09:42:49.721Z,50.34
2022-08-19T09:45:21.731Z,49.77
2022-08-19T09:47:49.851Z,48.95
2022-08-19T09:50:19.023Z,47.84
2022-08-19T09:52:56.959Z,48.00
2022-08-19T09:55:31.994Z,48.00
2022-08-19T09:58:02.085Z,47.99
2022-08-19T10:00:31.876Z,47.63
2022-08-19T10:02:59.417Z,47.32
2022-08-19T10:05:42.430Z,47.60
2022-08-19T10:08:13.087Z,47.33
2022-08-19T10:10:46.358Z,47.81
2022-08-19T10:13:16.323Z,47.70
2022-08-19T10:15:47.927Z,47.37
2022-08-19T10:18:16.582Z,46.95
2022-08-19T10:20:46.329Z,46.70
2022-08-19T10:23:20.015Z,46.25
2022-08-19T10:25:48.649Z,46.38
2022-08-19T10:28:16.189Z,46.84
2022-08-19T10:30:48.787Z,46.33
2022-08-19T10:33:38.435Z,46.01
2022-08-19T10:36:05.978Z,45.58
2022-08-19T10:38:34.951Z,44.24
2022-08-19T10:41:09.512Z,43.57
2022-08-19T10:43:39.048Z,44.00
2022-08-19T10:46:13.764Z,42.22
2022-08-19T10:48:45.007Z,42.66
2022-08-19T10:51:31.169Z,43.36
2022-08-19T10:53:59.224Z,43.93
2022-08-19T10:56:44.832Z,43.79
2022-08-19T10:59:14.565Z,43.94
2022-08-19T11:01:44.761Z,44.45
2022-08-19T11:04:14.478Z,44.63
2022-08-19T11:06:42.516Z,43.62
2022-08-19T11:09:11.732Z,44.54
2022-08-19T11:11:41.749Z,43.21
2022-08-19T11:14:10.379Z,42.86
2022-08-19T11:16:39.933Z,41.93
2022-08-19T11:19:10.345Z,43.25
2022-08-19T11:21:40.053Z,42.31
2022-08-19T11:24:10.021Z,42.20
2022-08-19T11:26:38.835Z,41.65
2022-08-19T11:29:12.159Z,41.46
2022-08-19T11:31:41.430Z,42.10
2022-08-19T11:34:12.349Z,42.19
2022-08-19T11:36:41.504Z,42.09
2022-08-19T11:39:09.988Z,41.76
2022-08-19T11:41:37.663Z,41.73
2022-08-19T11:44:05.650Z,41.59
2022-08-19T11:46:33.327Z,41.06
2022-08-19T11:49:02.504Z,41.15
2022-08-19T11:51:32.049Z,40.43
2022-08-19T11:54:01.027Z,40.54
2022-08-19T11:56:29.713Z,39.76
2022-08-19T11:58:58.103Z,39.55
2022-08-19T12:01:27.617Z,39.31
2022-08-19T12:03:57.303Z,38.58
2022-08-19T12:06:28.242Z,38.30
2022-08-19T12:08:57.694Z,38.47
2022-08-19T12:11:25.931Z,38.36
2022-08-19T12:13:54.473Z,37.90
2022-08-19T12:16:24.571Z,36.98
2022-08-19T12:18:52.745Z,36.18
2022-08-19T12:21:22.876Z,36.62
2022-08-19T12:23:55.206Z,36.45
2022-08-19T12:26:25.361Z,35.53
2022-08-19T12:28:52.930Z,35.60
2022-08-19T12:31:20.543Z,35.49
2022-08-19T12:33:49.094Z,34.94
2022-08-19T12:36:18.512Z,34.57
2022-08-19T12:38:47.673Z,33.84
2022-08-19T12:41:18.627Z,34.36
2022-08-19T12:43:50.049Z,34.90
2022-08-19T12:46:17.828Z,34.93
2022-08-19T12:48:45.929Z,35.30
2022-08-19T12:51:15.736Z,34.54
2022-08-19T12:53:43.698Z,33.94
2022-08-19T12:56:12.895Z,33.99
2022-08-19T12:58:42.608Z,34.24
2022-08-19T13:01:22.570Z,34.52
2022-08-19T13:03:52.972Z,34.15
2022-08-19T13:06:20.494Z,33.65
2022-08-19T13:08:48.074Z,33.42
2022-08-19T13:11:18.427Z,33.07
2022-08-19T13:13:48.285Z,33.63
2022-08-19T13:16:17.741Z,33.61
2022-08-19T13:18:48.217Z,32.28
2022-08-19T13:21:16.038Z,31.89
2022-08-19T13:23:43.883Z,32.75
2022-08-19T13:26:12.694Z,32.44
2022-08-19T13:28:58.609Z,32.30
2022-08-19T13:31:46.814Z,32.69
2022-08-19T13:34:15.629Z,31.80
2022-08-19T13:36:43.475Z,31.85
2022-08-19T13:39:11.566Z,32.27
2022-08-19T13:41:39.381Z,31.54
2022-08-19T13:44:07.920Z,31.64
2022-08-19T13:46:36.790Z,31.44
2022-08-19T13:49:05.120Z,31.20
2022-08-19T13:51:32.626Z,30.98
2022-08-19T13:54:00.136Z,31.50
2022-08-19T13:56:27.969Z,31.27
2022-08-19T13:58:55.608Z,30.64
2022-08-19T14:01:28.340Z,30.89
2022-08-19T14:03:57.204Z,31.31
2022-08-19T14:06:26.240Z,31.49
2022-08-19T14:08:53.865Z,31.28
2022-08-19T14:11:23.851Z,30.19
2022-08-19T14:13:51.442Z,31.04
2022-08-19T14:16:19.367Z,30.59
2022-08-19T14:18:47.054Z,30.68
2022-08-19T14:21:19.026Z,30.50
2022-08-19T14:23:46.941Z,30.67
2022-08-19T14:26:16.620Z,30.80
2022-08-19T14:28:45.299Z,30.37
2022-08-19T14:31:13.673Z,30.56
2022-08-19T14:33:41.660Z,30.66
2022-08-19T14:36:09.396Z,30.03
2022-08-19T14:38:38.297Z,29.93
2022-08-19T14:41:11.254Z,30.28
2022-08-19T14:43:39.219Z,30.19
2022-08-19T14:46:07.296Z,30.26
2022-08-19T14:48:34.989Z,30.24
2022-08-19T14:51:02.994Z,31.18
2022-08-19T14:53:30.664Z,31.38
2022-08-19T14:55:59.552Z,31.32
2022-08-19T14:58:29.419Z,31.54
2022-08-19T15:00:58.558Z,31.66
2022-08-19T15:03:26.871Z,31.15
2022-08-19T15:05:54.477Z,31.70
2022-08-19T15:08:25.647Z,31.55
2022-08-19T15:10:53.775Z,30.40
2022-08-19T15:13:22.825Z,30.73
2022-08-19T15:15:50.417Z,30.56
2022-08-19T15:18:18.051Z,31.08
2022-08-19T15:20:46.599Z,30.04
2022-08-19T15:23:15.195Z,30.03
2022-08-19T15:25:43.184Z,29.79
2022-08-19T15:28:12.004Z,30.31
2022-08-19T15:30:41.960Z,30.36
2022-08-19T15:33:09.479Z,30.13
2022-08-19T15:35:37.040Z,28.45
2022-08-19T15:38:06.427Z,28.80
2022-08-19T15:40:33.910Z,29.15
2022-08-19T15:43:01.682Z,30.38
2022-08-19T15:45:32.736Z,31.13
2022-08-19T15:48:02.482Z,31.06
2022-08-19T15:50:31.888Z,31.13
2022-08-19T15:53:03.496Z,31.29
2022-08-19T15:55:34.695Z,29.79
2022-08-19T15:58:28.523Z,29.86
2022-08-19T16:01:15.587Z,29.22
2022-08-19T16:04:02.552Z,29.40
2022-08-19T16:06:32.877Z,28.76
2022-08-19T16:09:02.802Z,28.43
2022-08-19T16:11:32.494Z,28.11
2022-08-19T16:14:01.109Z,27.99
2022-08-19T16:16:35.267Z,27.49
2022-08-19T16:19:10.314Z,29.05
2022-08-19T16:21:41.496Z,28.42
2022-08-19T16:24:11.928Z,27.59
2022-08-19T16:26:40.155Z,27.98
2022-08-19T16:29:08.966Z,28.87
2022-08-19T16:31:40.398Z,28.91
2022-08-19T16:34:09.293Z,29.64
2022-08-19T16:36:41.613Z,29.43
2022-08-19T16:39:09.918Z,29.16
2022-08-19T16:41:37.450Z,29.13
2022-08-19T16:44:05.272Z,29.05
2022-08-19T16:46:32.963Z,28.30
2022-08-19T16:49:00.606Z,28.95
2022-08-19T16:51:29.908Z,29.83
2022-08-19T16:53:57.416Z,29.85
2022-08-19T16:56:25.511Z,29.95
2022-08-19T16:58:53.795Z,29.93
2022-08-19T17:01:21.533Z,29.77
2022-08-19T17:03:50.476Z,29.92
2022-08-19T17:06:21.168Z,29.72
2022-08-19T17:08:51.552Z,28.99
2022-08-19T17:11:21.052Z,29.04
2022-08-19T17:13:50.669Z,28.81
2022-08-19T17:16:19.747Z,29.63
2022-08-19T17:18:47.340Z,28.97
2022-08-19T17:21:14.839Z,28.96
2022-08-19T17:23:48.827Z,29.15
2022-08-19T17:26:18.913Z,29.02
2022-08-19T17:28:47.937Z,28.95
2022-08-19T17:31:15.477Z,29.16
2022-08-19T17:33:43.072Z,30.08
2022-08-19T17:36:16.666Z,30.41
2022-08-19T17:38:44.411Z,32.25
2022-08-19T17:41:11.950Z,32.43
2022-08-19T17:43:43.846Z,32.90
2022-08-19T17:46:17.708Z,33.32
2022-08-19T17:48:51.453Z,33.33
2022-08-19T17:51:22.291Z,32.45
2022-08-19T17:53:51.551Z,33.25
2022-08-19T17:56:19.535Z,33.08
2022-08-19T17:58:59.552Z,33.16
2022-08-19T18:01:28.800Z,33.32
2022-08-19T18:04:16.016Z,32.74
2022-08-19T18:06:46.613Z,33.11
2022-08-19T18:09:23.890Z,33.92
2022-08-19T18:11:52.650Z,33.62
2022-08-19T18:14:33.262Z,34.07
2022-08-19T18:17:05.382Z,34.44
2022-08-19T18:19:40.762Z,36.11
2022-08-19T18:22:08.500Z,34.85
2022-08-19T18:24:38.596Z,35.37
2022-08-19T18:27:06.797Z,35.30
2022-08-19T18:29:36.959Z,35.02
2022-08-19T18:32:05.221Z,35.34
2022-08-19T18:34:33.194Z,35.58
2022-08-19T18:37:00.660Z,36.52
2022-08-19T18:39:45.852Z,35.88
2022-08-19T18:42:32.629Z,36.50
2022-08-19T18:45:19.335Z,36.48
2022-08-19T18:48:04.627Z,36.87
2022-08-19T18:50:32.816Z,37.03
2022-08-19T18:53:01.387Z,36.91
2022-08-19T18:55:29.294Z,37.18
2022-08-19T18:57:56.925Z,37.43
2022-08-19T19:00:25.887Z,37.42
2022-08-19T19:02:54.517Z,37.71
2022-08-19T19:05:22.662Z,37.60
2022-08-19T19:07:50.508Z,37.84
2022-08-19T19:10:18.118Z,38.20
2022-08-19T19:12:45.824Z,37.91
2022-08-19T19:15:13.960Z,37.81
2022-08-19T19:17:42.791Z,38.26
2022-08-19T19:20:10.424Z,38.47
2022-08-19T19:22:38.023Z,38.65
2022-08-19T19:25:06.640Z,39.63
2022-08-19T19:27:34.187Z,38.76
2022-08-19T19:30:01.833Z,39.22
2022-08-19T19:32:38.769Z,39.36
2022-08-19T19:35:09.767Z,39.30
2022-08-19T19:37:37.580Z,39.80
2022-08-19T19:40:05.809Z,39.67
2022-08-19T19:42:33.317Z,40.27
2022-08-19T19:45:02.006Z,40.79
2022-08-19T19:47:30.296Z,40.08
2022-08-19T19:50:15.189Z,40.09
2022-08-19T19:52:46.566Z,40.50
2022-08-19T19:55:18.337Z,41.06
2022-08-19T19:57:46.286Z,40.98
2022-08-19T20:00:16.519Z,41.66
2022-08-19T20:02:47.884Z,41.89
2022-08-19T20:05:19.207Z,40.99
2022-08-19T20:08:05.587Z,42.26
2022-08-19T20:10:33.421Z,42.18
2022-08-19T20:13:03.280Z,41.91
2022-08-19T20:15:31.268Z,43.28
2022-08-19T20:17:59.354Z,42.69
2022-08-19T20:20:27.167Z,43.50
2022-08-19T20:22:56.041Z,44.00
2022-08-19T20:25:23.804Z,44.39
2022-08-19T20:27:51.761Z,43.86
2022-08-19T20:30:23.153Z,44.38
2022-08-19T20:32:51.059Z,45.21
2022-08-19T20:35:21.207Z,44.64
2022-08-19T20:37:48.988Z,45.15
2022-08-19T20:40:21.639Z,44.44
2022-08-19T20:42:50.490Z,45.40
2022-08-19T20:45:32.993Z,45.72
2022-08-19T20:48:02.847Z,45.25
2022-08-19T20:50:31.314Z,44.90
2022-08-19T20:52:58.867Z,44.94
2022-08-19T20:55:28.823Z,45.38
2022-08-19T20:57:56.507Z,45.38
2022-08-19T21:00:24.241Z,46.68
2022-08-19T21:02:51.793Z,46.45
2022-08-19T21:05:19.488Z,46.40
2022-08-19T21:07:47.045Z,46.72
2022-08-19T21:10:15.331Z,46.47
2022-08-19T21:12:44.474Z,46.83
2022-08-19T21:15:12.477Z,46.69
2022-08-19T21:17:40.189Z,46.38
2022-08-19T21:20:09.028Z,45.57
2022-08-19T21:22:36.661Z,46.47
2022-08-19T21:25:04.981Z,46.85
2022-08-19T21:27:32.483Z,47.19
2022-08-19T21:30:01.325Z,47.42
2022-08-19T21:32:28.819Z,47.82
2022-08-19T21:34:56.505Z,47.76
2022-08-19T21:37:25.597Z,48.98
2022-08-19T21:39:53.895Z,49.21
2022-08-19T21:42:22.346Z,50.10
2022-08-19T21:44:50.156Z,49.85
2022-08-19T21:47:19.261Z,50.00
2022-08-19T21:49:47.024Z,50.15
2022-08-19T21:52:14.616Z,50.59
2022-08-19T21:54:42.176Z,50.73
2022-08-19T21:57:10.484Z,51.27
2022-08-19T21:59:39.719Z,52.05
2022-08-19T22:02:20.034Z,52.17
2022-08-19T22:04:50.827Z,52.21
2022-08-19T22:07:20.050Z,51.96
2022-08-19T22:09:48.938Z,52.12
2022-08-19T22:12:23.273Z,51.68
2022-08-19T22:14:51.655Z,52.26
2022-08-19T22:17:19.826Z,53.08
2022-08-19T22:19:47.383Z,53.22
2022-08-19T22:22:20.855Z,53.58
2022-08-19T22:24:49.066Z,54.41
2022-08-19T22:27:16.604Z,53.71
2022-08-19T22:29:44.132Z,53.60
2022-08-19T22:32:26.201Z,53.47
2022-08-19T22:34:56.614Z,52.80
2022-08-19T22:37:26.214Z,53.66
2022-08-19T22:39:53.928Z,53.91
2022-08-19T22:42:22.254Z,53.69
2022-08-19T22:44:50.025Z,53.90
2022-08-19T22:47:17.535Z,53.78
2022-08-19T22:49:45.528Z,53.85
2022-08-19T22:52:17.220Z,53.97
2022-08-19T22:54:48.037Z,53.84
2022-08-19T22:57:15.996Z,53.98
2022-08-19T22:59:43.518Z,54.05
2022-08-19T23:02:11.825Z,53.82
2022-08-19T23:04:39.290Z,53.83
2022-08-19T23:07:07.542Z,54.19
2022-08-19T23:09:36.098Z,54.00
2022-08-19T23:12:05.970Z,53.85
2022-08-19T23:14:34.277Z,54.05
2022-08-19T23:17:02.324Z,54.56
2022-08-19T23:19:29.800Z,54.83
2022-08-19T23:21:57.618Z,54.19
2022-08-19T23:24:25.118Z,55.49
2022-08-19T23:27:09.991Z,55.88
2022-08-19T23:29:56.641Z,55.71
2022-08-19T23:32:25.390Z,55.78
2022-08-19T23:34:52.944Z,56.20
2022-08-19T23:37:20.434Z,56.93
2022-08-19T23:39:49.255Z,56.56
2022-08-19T23:42:16.890Z,56.39
2022-08-19T23:44:51.960Z,56.75
2022-08-19T23:47:20.555Z,56.74
2022-08-19T23:49:48.529Z,56.21
2022-08-19T23:52:16.033Z,57.04
2022-08-19T23:54:44.133Z,57.47
2022-08-19T23:57:14.139Z,57.29
2022-08-19T23:59:42.591Z,57.78
